Kezdőlap
METAR-TAF:

METAR-TAF

Repülőterek :

Bahrein, Bahrein

Bahreini nemzetközi repülőtér

földrajzi szélesség: 26-16N, földrajzi hosszúság: 050-39E, magasság: 2 m

Jelenlegi meteorológiai megfigyelések

A jelentés 34 perccel ezelõtt készült, 00:30 UTC
Északi szél 14 kt
Hőmérséklet 26°C
Páratartalom 51%
Légköri nyomás 1011 hPa
Látótávolság 10 km, vagy több
felhőtlen 1500 m magasságban, és nincs gomolyfelhõ

METAR: OBBI 240030Z 01014KT CAVOK 26/15 Q1011 NOSIG

Idő: 04:04 (01:04 UTC)

Előrejelzés

A jelentés 2 órával és 4 perccel ezelõtt készült, 23:00 UTC
Az előrejelzés 24-én 00 óra UTC és 25-én 06 óra UTC között érvényes
Észak-északnyugati szél 15 kt széllökések: 25 kt
Látótávolság: 7000 m

TAF: OBBI 232300Z 2400/2506 34015G25KT 7000 NSC

Meteorológiai megfigyelések és előrejelzések több, mint 4000 repülőtéren (METAR és TAF jelentéseket).

A térképen piros és sárga pontok jelzik az elérhető meteorológiai állomásokat.

Mozgassa az egeret a pont fölött, hogy megjelenjen az állomás neve.

Azután kattintson az időjárási megfigyelések és előrejelzések megtekintéséhez.

A térkép megváltoztatása: kattintson a fekete keresztel jelölt zöld gombra ráközelítéshez, a vonallal jelölt zöld gombra távolításhoz, vagy a zöld nyilakra a szomszédos térképek eléréséhez.


METAR-TAF: